Time;durP1;ratioP1;P1;durP2;ratioP2;P2;SDS_P1;SDS_P2;PMS_P1;PMS_P2;Temp;Humidity;BMP_temperature;BMP_pressure;BME280_temperature;BME280_humidity;BME280_pressure;Samples;Min_cycle;Max_cycle;Signal;HPM_P1;HPM_P2
2021/07/22 00:01:51;;;;;;;21.07;15.87;;;15.10;99.90;;;16.28;57.69;94600.34;5024022;28;20238;-72
2021/07/22 00:04:17;;;;;;;21.20;16.10;;;15.00;99.90;;;16.24;57.85;94612.69;5024336;28;20232;-72
2021/07/22 00:06:43;;;;;;;20.57;16.60;;;15.10;99.90;;;16.18;58.04;94608.47;5003909;28;20693;-72
2021/07/22 00:09:09;;;;;;;22.53;16.97;;;15.20;99.90;;;16.17;57.84;94609.53;5036920;28;20624;-72
2021/07/22 00:11:35;;;;;;;20.23;16.60;;;15.10;99.90;;;16.13;58.11;94611.97;5024818;28;20291;-71
2021/07/22 00:14:01;;;;;;;21.70;16.17;;;15.10;99.90;;;16.17;58.05;94614.88;5018834;28;20193;-74
2021/07/22 00:16:26;;;;;;;20.53;15.80;;;15.10;99.90;;;16.23;58.67;94614.56;5021722;28;20212;-73
2021/07/22 00:18:55;;;;;;;21.70;16.73;;;15.20;99.90;;;16.25;58.42;94622.31;5028573;28;20293;-73
2021/07/22 00:21:23;;;;;;;21.30;16.37;;;15.20;99.90;;;16.26;58.41;94614.00;5026255;28;20209;-73
2021/07/22 00:23:51;;;;;;;20.57;16.00;;;15.20;99.90;;;16.30;58.51;94614.22;5007399;28;20307;-72
2021/07/22 00:26:17;;;;;;;20.63;15.50;;;15.20;99.90;;;16.45;58.58;94624.81;5022837;28;20190;-73
2021/07/22 00:28:43;;;;;;;21.57;16.63;;;15.30;99.90;;;16.52;58.86;94613.75;5019187;28;20193;-73
2021/07/22 00:31:09;;;;;;;20.07;16.03;;;15.40;99.90;;;16.46;58.80;94602.28;5021257;28;20240;-72
2021/07/22 00:33:35;;;;;;;18.03;15.80;;;15.40;99.90;;;16.39;58.88;94610.66;5023141;28;20197;-73
2021/07/22 00:36:12;;;;;;;18.63;15.67;;;15.30;99.90;;;16.32;59.20;94606.72;5025029;28;20283;-73
2021/07/22 00:38:41;;;;;;;21.10;17.00;;;15.30;99.90;;;16.24;59.19;94608.13;5020785;28;20199;-72
2021/07/22 00:41:11;;;;;;;22.07;16.60;;;15.20;99.90;;;16.20;59.13;94601.75;5031934;28;20608;-73
2021/07/22 00:43:40;;;;;;;21.63;16.33;;;15.20;99.90;;;16.21;59.29;94614.06;5018267;28;20232;-73
2021/07/22 00:46:08;;;;;;;22.40;16.57;;;15.20;99.90;;;16.19;59.34;94607.38;5035882;28;20536;-72
2021/07/22 00:48:37;;;;;;;22.03;16.73;;;15.10;99.90;;;16.23;59.45;94601.19;5020250;28;20200;-73
2021/07/22 00:51:03;;;;;;;22.13;16.83;;;15.20;99.90;;;16.16;59.50;94600.72;5032993;28;20190;-73
2021/07/22 00:53:29;;;;;;;21.20;16.40;;;15.10;99.90;;;16.13;59.80;94603.94;5026188;28;20855;-74
2021/07/22 00:55:55;;;;;;;24.90;17.00;;;15.10;99.90;;;16.09;59.71;94599.44;5025451;28;20199;-74
2021/07/22 00:58:23;;;;;;;19.60;16.00;;;15.10;99.90;;;16.09;59.93;94602.91;5024426;28;20209;-73
2021/07/22 01:00:51;;;;;;;20.57;15.70;;;15.10;99.90;;;16.01;59.99;94595.50;5013134;28;20258;-72
2021/07/22 01:03:24;;;;;;;23.93;17.27;;;15.00;99.90;;;16.01;60.08;94603.53;5024349;28;20213;-72
2021/07/22 01:05:50;;;;;;;19.67;15.77;;;14.90;99.90;;;15.94;60.23;94595.03;5034662;28;20196;-73
2021/07/22 01:08:16;;;;;;;19.20;15.93;;;14.90;99.90;;;15.91;60.22;94593.69;5039759;28;20918;-73
2021/07/22 01:10:42;;;;;;;20.43;15.67;;;14.90;99.90;;;15.88;60.35;94599.59;5028368;28;20193;-73
2021/07/22 01:13:12;;;;;;;20.47;16.07;;;14.80;99.90;;;15.87;60.57;94592.69;4994362;28;20204;-71
2021/07/22 01:15:39;;;;;;;19.00;15.37;;;14.70;99.90;;;15.86;60.48;94601.78;5023009;28;20196;-73
2021/07/22 01:18:05;;;;;;;20.57;16.33;;;14.70;99.90;;;15.80;60.65;94599.41;5024888;28;20303;-73
2021/07/22 01:20:33;;;;;;;21.33;16.17;;;14.60;99.90;;;15.79;60.77;94595.94;5018454;28;20596;-74
2021/07/22 01:23:01;;;;;;;22.03;16.90;;;14.60;99.90;;;15.71;60.87;94582.41;5024412;28;20270;-73
2021/07/22 01:25:30;;;;;;;25.00;17.67;;;14.60;99.90;;;15.70;60.73;94594.16;5026085;28;20595;-74
2021/07/22 01:27:57;;;;;;;24.43;16.73;;;14.50;99.90;;;15.68;60.93;94590.97;5027539;28;20208;-73
2021/07/22 01:30:25;;;;;;;21.67;16.07;;;14.50;99.90;;;15.64;61.08;94592.59;5024125;28;20193;-74
2021/07/22 01:32:56;;;;;;;20.77;16.63;;;14.50;99.90;;;15.59;61.09;94590.75;5013760;28;20215;-74
2021/07/22 01:35:23;;;;;;;22.73;17.17;;;14.40;99.90;;;15.56;61.22;94583.28;5025552;28;20218;-73
2021/07/22 01:37:51;;;;;;;23.20;17.10;;;14.40;99.90;;;15.52;61.40;94595.59;5039053;28;20685;-72
2021/07/22 01:40:21;;;;;;;20.87;16.83;;;14.40;99.90;;;15.50;61.40;94592.44;5007599;28;20181;-73
2021/07/22 01:42:47;;;;;;;23.07;16.67;;;14.30;99.90;;;15.47;61.44;94582.28;5041878;28;20231;-73
2021/07/22 01:45:16;;;;;;;25.70;17.43;;;14.60;99.90;;;15.39;61.48;94575.63;5009582;28;20808;-72
2021/07/22 01:47:44;;;;;;;21.17;17.13;;;14.20;99.90;;;15.32;61.50;94572.47;5027151;28;20591;-73
2021/07/22 01:50:10;;;;;;;20.70;15.43;;;15.10;99.90;;;15.31;61.68;94581.53;5019795;28;20203;-72
2021/07/22 01:52:36;;;;;;;23.07;18.03;;;14.70;99.90;;;15.20;61.86;94580.03;5037973;28;20203;-73
2021/07/22 01:55:03;;;;;;;25.03;17.30;;;14.80;99.90;;;15.31;61.88;94576.22;5016118;28;20257;-73
2021/07/22 01:57:32;;;;;;;22.87;17.73;;;14.10;99.90;;;15.37;61.94;94580.47;5007217;28;20221;-71
2021/07/22 02:00:04;;;;;;;22.93;17.43;;;14.30;99.90;;;15.31;61.96;94578.88;5017639;28;20186;-73
2021/07/22 02:02:31;;;;;;;21.77;17.37;;;14.20;99.90;;;15.29;62.13;94582.91;5025166;28;20196;-73
2021/07/22 02:04:57;;;;;;;21.00;17.07;;;14.10;99.90;;;15.18;62.22;94576.81;5023367;28;20224;-71
2021/07/22 02:07:25;;;;;;;25.70;17.43;;;14.10;99.90;;;15.22;62.31;94579.75;5017700;28;20652;-73
2021/07/22 02:09:54;;;;;;;22.63;17.67;;;14.10;99.90;;;15.18;62.23;94587.50;5023894;28;20691;-71
2021/07/22 02:12:21;;;;;;;22.57;17.40;;;14.00;99.90;;;15.14;62.46;94583.00;5025479;28;20190;-73
2021/07/22 02:14:50;;;;;;;20.83;16.50;;;13.90;99.90;;;15.12;62.52;94577.94;5004769;28;20278;-72
2021/07/22 02:17:21;;;;;;;22.80;16.77;;;13.90;99.90;;;15.16;62.21;94581.66;5027600;28;20247;-73
2021/07/22 02:19:49;;;;;;;20.47;15.97;;;13.90;99.90;;;15.12;62.91;94582.47;5011336;28;20270;-72
2021/07/22 02:22:16;;;;;;;21.47;17.00;;;13.80;99.90;;;15.09;62.88;94581.16;4992782;28;20277;-72
2021/07/22 02:24:42;;;;;;;20.97;17.10;;;13.90;99.90;;;15.03;62.87;94576.13;5020868;28;20719;-72
2021/07/22 02:27:08;;;;;;;20.23;16.93;;;13.80;99.90;;;14.98;62.76;94578.81;5027877;28;20285;-72
2021/07/22 02:29:37;;;;;;;22.50;16.97;;;13.80;99.90;;;14.91;62.98;94589.78;5047253;28;20228;-72
2021/07/22 02:32:09;;;;;;;22.53;16.83;;;13.80;99.90;;;14.93;62.95;94597.53;5010566;28;20228;-73
2021/07/22 02:34:37;;;;;;;22.97;17.53;;;13.70;99.90;;;14.97;63.17;94591.38;5024166;28;21410;-73
2021/07/22 02:37:08;;;;;;;22.90;17.47;;;13.70;99.90;;;14.96;63.36;94602.31;5027939;28;20269;-72
2021/07/22 02:39:38;;;;;;;24.23;17.30;;;13.70;99.90;;;14.86;63.47;94584.47;5024235;28;20197;-73
2021/07/22 02:42:06;;;;;;;23.50;16.80;;;13.70;99.90;;;14.87;63.26;94594.09;5025323;28;20211;-73
2021/07/22 02:44:38;;;;;;;19.77;15.47;;;13.70;99.90;;;14.81;63.58;94608.50;5006484;28;20213;-72
2021/07/22 02:47:13;;;;;;;22.93;16.37;;;13.60;99.90;;;14.81;63.63;94611.16;5024181;28;20193;-73
2021/07/22 02:49:42;;;;;;;24.03;16.97;;;13.60;99.90;;;14.81;63.62;94605.84;5023686;28;20593;-73
2021/07/22 02:52:11;;;;;;;20.90;16.77;;;13.60;99.90;;;14.74;63.62;94600.78;5027058;28;20189;-72
2021/07/22 02:54:37;;;;;;;21.60;16.93;;;13.60;99.90;;;14.73;63.90;94599.22;5024235;28;20204;-72
2021/07/22 02:57:03;;;;;;;21.00;15.87;;;13.60;99.90;;;14.66;63.71;94596.03;5024637;28;20865;-73
2021/07/22 02:59:31;;;;;;;21.20;16.47;;;13.50;99.90;;;14.65;63.78;94593.63;5023400;28;20471;-72
2021/07/22 03:01:59;;;;;;;21.67;16.00;;;13.50;99.90;;;14.72;64.08;94607.47;5024514;28;20204;-72
2021/07/22 03:04:27;;;;;;;22.23;16.53;;;13.60;99.90;;;14.68;64.21;94599.22;5008350;28;20680;-72
2021/07/22 03:06:53;;;;;;;21.57;15.90;;;13.50;99.90;;;14.67;64.11;94592.28;5024837;28;20207;-73
2021/07/22 03:09:19;;;;;;;18.07;15.37;;;13.50;99.90;;;14.67;64.06;94594.16;5054750;28;20245;-73
2021/07/22 03:11:45;;;;;;;22.13;16.87;;;13.50;99.90;;;14.68;64.47;94595.75;5023542;28;20201;-71
2021/07/22 03:14:11;;;;;;;25.47;17.73;;;13.50;99.90;;;14.67;64.24;94594.94;5022941;28;20231;-71
2021/07/22 03:16:39;;;;;;;22.17;17.77;;;13.50;99.90;;;14.64;64.40;94586.72;5029295;28;20219;-73
2021/07/22 03:19:06;;;;;;;20.53;16.70;;;13.50;99.90;;;14.57;64.40;94586.97;5025788;28;20200;-73
2021/07/22 03:21:32;;;;;;;22.70;16.47;;;13.50;99.90;;;14.54;64.68;94602.75;5003087;28;20894;-73
2021/07/22 03:24:01;;;;;;;20.83;16.13;;;13.40;99.90;;;14.51;64.67;94604.06;5024157;28;20211;-73
2021/07/22 03:26:27;;;;;;;24.53;16.53;;;13.40;99.90;;;14.48;64.74;94596.59;5017551;28;20203;-73
2021/07/22 03:28:55;;;;;;;21.60;15.80;;;13.30;99.90;;;14.44;64.78;94600.09;5024669;28;20208;-72
2021/07/22 03:31:21;;;;;;;21.37;16.10;;;13.30;99.90;;;14.37;64.79;94609.16;5026166;28;20197;-72
2021/07/22 03:33:47;;;;;;;21.70;16.80;;;13.30;99.90;;;14.35;65.01;94600.66;5034840;28;20640;-72
2021/07/22 03:36:16;;;;;;;23.30;17.07;;;13.20;99.90;;;14.38;64.95;94605.44;5024220;28;20313;-72
2021/07/22 03:38:42;;;;;;;21.27;15.73;;;13.20;99.90;;;14.31;65.11;94596.09;5024423;28;20777;-72
2021/07/22 03:41:22;;;;;;;19.67;15.13;;;13.20;99.90;;;14.32;65.54;94617.16;5036821;28;20215;-73
2021/07/22 03:43:48;;;;;;;21.07;16.57;;;13.10;99.90;;;14.37;65.24;94606.50;5025650;28;20222;-73
2021/07/22 03:46:17;;;;;;;22.20;17.63;;;13.20;99.90;;;14.31;65.38;94599.56;5020517;28;20287;-73
2021/07/22 03:48:46;;;;;;;21.90;16.23;;;13.50;99.90;;;14.31;65.40;94612.88;5017401;28;20189;-72
2021/07/22 03:51:12;;;;;;;21.50;16.80;;;14.10;99.90;;;14.30;65.27;94600.63;5015921;28;20204;-73
2021/07/22 03:53:41;;;;;;;20.60;16.30;;;;;;;14.36;65.41;94607.59;5037654;28;20215;-72
2021/07/22 03:56:07;;;;;;;20.70;16.83;;;13.20;99.90;;;14.34;65.40;94599.03;5001735;28;20203;-73
2021/07/22 03:58:33;;;;;;;20.40;16.50;;;13.40;99.90;;;14.34;65.76;94607.03;5021790;28;20205;-71
2021/07/22 04:00:59;;;;;;;27.67;17.50;;;13.10;99.90;;;14.54;65.68;94611.53;5018343;28;20521;-72
2021/07/22 04:03:27;;;;;;;22.87;17.40;;;13.40;99.90;;;14.54;65.70;94610.75;5023934;28;20663;-74
2021/07/22 04:05:55;;;;;;;24.00;18.23;;;13.20;99.90;;;14.51;65.75;94621.94;5020839;28;20232;-73
2021/07/22 04:08:23;;;;;;;23.33;18.00;;;13.30;99.90;;;14.53;65.88;94609.16;5050546;28;20226;-73
2021/07/22 04:10:49;;;;;;;24.60;17.90;;;13.30;99.90;;;14.54;66.12;94618.75;5008583;28;20294;-72
2021/07/22 04:13:15;;;;;;;23.43;17.73;;;13.30;99.90;;;14.54;66.03;94611.53;5023232;28;20787;-73
2021/07/22 04:15:41;;;;;;;23.77;18.53;;;13.40;99.90;;;14.57;66.03;94615.53;5020687;28;20199;-72
2021/07/22 04:18:07;;;;;;;23.17;16.80;;;13.40;99.90;;;14.61;66.14;94619.25;5027012;28;20191;-72
2021/07/22 04:20:33;;;;;;;24.60;18.33;;;13.50;99.90;;;14.70;66.20;94634.44;5005480;28;21099;-72
2021/07/22 04:23:05;;;;;;;22.10;16.23;;;13.50;99.90;;;14.70;66.22;94625.63;5018585;28;20215;-73
2021/07/22 04:25:31;;;;;;;20.70;16.00;;;13.50;99.90;;;14.75;66.45;94628.28;5021601;28;20192;-74
2021/07/22 04:27:59;;;;;;;22.23;17.43;;;13.50;99.90;;;14.79;66.44;94627.47;5027657;28;20192;-73
2021/07/22 04:30:25;;;;;;;22.87;17.70;;;13.60;99.90;;;14.82;66.62;94628.78;5025741;28;20224;-71
2021/07/22 04:32:56;;;;;;;21.20;16.53;;;13.60;99.90;;;14.87;66.45;94628.78;5027117;28;20203;-71
2021/07/22 04:35:22;;;;;;;24.93;17.07;;;13.70;99.90;;;14.91;66.56;94626.38;5023739;28;20216;-73
2021/07/22 04:37:48;;;;;;;21.10;16.03;;;13.80;99.90;;;15.02;66.79;94635.91;5024398;28;20185;-72
2021/07/22 04:40:13;;;;;;;20.23;15.90;;;14.60;99.90;;;15.09;66.92;94631.88;5030617;28;20192;-74
2021/07/22 04:42:39;;;;;;;22.53;16.37;;;13.90;99.90;;;15.09;66.78;94636.41;5009291;28;20727;-73
2021/07/22 04:45:09;;;;;;;22.83;16.13;;;13.90;99.90;;;15.17;67.01;94635.88;5012364;28;20246;-73
2021/07/22 04:47:35;;;;;;;21.80;15.73;;;14.00;99.90;;;15.33;67.00;94635.50;5024453;28;20221;-73
2021/07/22 04:50:05;;;;;;;20.17;15.70;;;14.10;99.90;;;15.43;67.00;94639.19;5031101;28;20257;-73
2021/07/22 04:52:31;;;;;;;22.70;17.00;;;14.20;99.90;;;15.46;67.13;94639.44;5033978;28;20213;-73
2021/07/22 04:55:00;;;;;;;20.10;16.67;;;14.20;99.90;;;15.55;67.27;94645.81;5024289;28;20217;-72
2021/07/22 04:57:28;;;;;;;23.63;16.17;;;14.40;99.90;;;15.59;67.54;94652.22;5027306;28;20255;-72
2021/07/22 04:59:54;;;;;;;20.23;16.33;;;14.40;99.90;;;15.70;67.39;94639.59;5028106;28;20198;-74
2021/07/22 05:02:20;;;;;;;20.70;16.17;;;14.50;99.90;;;15.81;67.45;94633.88;5032771;28;20964;-73
2021/07/22 05:04:48;;;;;;;21.53;16.60;;;14.60;99.90;;;15.86;67.26;94638.41;5027254;28;20282;-74
2021/07/22 05:07:17;;;;;;;18.63;15.73;;;14.60;99.90;;;15.98;67.42;94638.84;5011867;28;20193;-73
2021/07/22 05:09:45;;;;;;;21.40;16.97;;;14.80;99.90;;;16.09;67.56;94645.69;5024507;28;20308;-73
2021/07/22 05:12:11;;;;;;;23.30;17.83;;;14.90;99.90;;;16.15;67.62;94633.09;5023509;28;20197;-72
2021/07/22 05:14:37;;;;;;;23.40;17.90;;;15.00;99.90;;;16.28;67.36;94641.25;5009224;28;20644;-73
2021/07/22 05:17:03;;;;;;;24.83;17.53;;;15.10;99.90;;;16.39;67.71;94636.59;5023283;28;20201;-73
2021/07/22 05:19:29;;;;;;;25.17;17.33;;;15.20;99.90;;;16.55;67.64;94642.63;5023421;28;20252;-73
2021/07/22 05:21:55;;;;;;;21.40;17.83;;;15.40;99.90;;;16.68;67.79;94650.81;5023967;28;20197;-73
2021/07/22 05:24:28;;;;;;;22.83;16.67;;;15.50;99.90;;;16.84;67.62;94648.78;5051115;28;20222;-72
2021/07/22 05:26:54;;;;;;;20.80;16.70;;;15.70;99.90;;;17.03;67.87;94663.00;5008670;28;20202;-72
2021/07/22 05:29:19;;;;;;;21.87;16.47;;;15.80;99.90;;;17.15;68.01;94644.66;5024405;28;20804;-72
2021/07/22 05:31:45;;;;;;;19.13;16.07;;;16.00;99.90;;;17.30;68.04;94641.78;5032230;28;20597;-73
2021/07/22 05:34:11;;;;;;;22.47;16.57;;;16.20;99.90;;;17.56;67.96;94646.84;5026113;28;20208;-72
2021/07/22 05:36:40;;;;;;;20.13;15.83;;;16.40;99.90;;;17.76;68.04;94651.91;5024561;28;20229;-73
2021/07/22 05:39:06;;;;;;;19.43;16.60;;;16.60;99.90;;;17.90;67.70;94650.06;5021296;28;20202;-73
2021/07/22 05:41:32;;;;;;;22.27;16.40;;;16.70;99.90;;;18.00;68.14;94657.19;5037414;28;20202;-73
2021/07/22 05:44:01;;;;;;;21.13;16.87;;;16.90;99.90;;;18.19;67.91;94653.41;5008474;28;20220;-72
2021/07/22 05:46:28;;;;;;;20.10;16.37;;;17.10;99.90;;;18.32;67.97;94654.53;5020665;28;20198;-71
2021/07/22 05:48:54;;;;;;;20.43;16.13;;;17.90;99.90;;;18.80;67.98;94652.38;5023496;28;20276;-72
2021/07/22 05:51:20;;;;;;;18.87;16.40;;;18.40;99.90;;;19.64;67.83;94667.09;5024020;28;20285;-74
2021/07/22 05:53:46;;;;;;;20.33;16.00;;;19.60;99.90;;;20.82;67.86;94682.91;5024457;28;20195;-72
2021/07/22 05:56:16;;;;;;;18.13;15.30;;;21.00;99.90;;;21.70;67.54;94637.88;5021118;28;20202;-72
2021/07/22 05:58:42;;;;;;;18.83;15.33;;;20.60;99.90;;;22.81;67.81;94689.19;5026327;28;20209;-73
2021/07/22 06:01:08;;;;;;;18.43;16.40;;;21.70;99.90;;;23.81;67.61;94661.56;5020483;28;20197;-73
2021/07/22 06:03:36;;;;;;;18.20;16.07;;;22.90;99.90;;;24.65;67.22;94657.72;5020048;28;20220;-73
2021/07/22 06:06:05;;;;;;;19.40;15.97;;;23.80;99.90;;;25.30;66.93;94651.47;5022352;28;20401;-74
2021/07/22 06:08:31;;;;;;;20.27;15.90;;;24.70;99.90;;;26.05;66.93;94652.69;5007809;28;21126;-75
2021/07/22 06:10:57;;;;;;;17.17;15.37;;;25.60;99.90;;;26.76;66.59;94644.63;5022292;28;20212;-75
2021/07/22 06:13:23;;;;;;;20.57;16.17;;;26.50;99.90;;;26.93;66.29;94652.50;5021171;28;20628;-71
2021/07/22 06:15:49;;;;;;;17.03;15.27;;;26.90;99.90;;;27.72;65.96;94657.97;5007975;28;20208;-72
2021/07/22 06:18:16;;;;;;;17.50;15.70;;;27.80;99.90;;;27.91;65.87;94636.22;5024506;28;20192;-75
2021/07/22 06:20:43;;;;;;;23.87;16.47;;;28.30;99.90;;;28.20;65.06;94592.13;5023646;28;20208;-73
2021/07/22 06:23:09;;;;;;;17.40;15.60;;;28.80;99.90;;;28.92;65.22;94655.13;5009286;28;20863;-72
2021/07/22 06:25:37;;;;;;;16.97;15.20;;;29.50;99.90;;;29.39;64.27;94652.09;5023180;28;20211;-72
2021/07/22 06:28:03;;;;;;;17.50;15.77;;;30.00;99.90;;;30.24;64.32;94621.38;5051758;28;20204;-71
2021/07/22 06:30:31;;;;;;;17.77;14.97;;;30.70;99.90;;;30.48;63.62;94640.09;5000243;28;20231;-72
2021/07/22 06:32:57;;;;;;;17.03;15.23;;;31.10;99.90;;;30.53;63.48;94623.31;5004088;28;20200;-73
2021/07/22 06:35:25;;;;;;;17.97;15.47;;;31.40;99.90;;;29.89;62.95;94609.94;5019063;28;20695;-72
2021/07/22 06:37:51;;;;;;;17.00;15.30;;;31.20;99.90;;;30.07;62.46;94673.88;5023941;28;20854;-74
2021/07/22 06:40:19;;;;;;;18.33;15.97;;;31.30;99.90;;;29.93;62.48;94545.16;5022908;28;20204;-74
2021/07/22 06:42:45;;;;;;;16.83;15.03;;;31.20;99.90;;;30.45;62.03;94662.72;5024258;28;20269;-74
2021/07/22 06:45:12;;;;;;;16.90;15.20;;;31.50;99.90;;;30.12;61.51;94542.28;5031889;28;20228;-72
2021/07/22 06:47:39;;;;;;;16.93;15.23;;;31.40;99.90;;;30.65;61.13;94665.31;5024651;28;20201;-72
2021/07/22 06:50:13;;;;;;;16.77;15.17;;;31.70;99.40;;;31.52;60.80;94678.44;5003002;28;20209;-72
2021/07/22 06:52:39;;;;;;;17.53;15.73;;;32.40;97.70;;;31.82;60.21;94659.09;5026525;28;20204;-73
2021/07/22 06:55:09;;;;;;;17.27;15.00;;;32.80;96.80;;;31.57;60.25;94636.16;5019434;28;20276;-73
2021/07/22 06:57:35;;;;;;;16.08;14.57;;;32.90;95.70;;;32.70;59.71;94680.84;5020600;28;20213;-73
2021/07/22 07:00:02;;;;;;;16.93;15.23;;;33.80;94.80;;;32.22;59.45;94576.66;5024652;28;20291;-73
2021/07/22 07:02:28;;;;;;;16.85;15.13;;;33.70;94.10;;;32.61;58.81;94622.72;5019953;28;20240;-73
2021/07/22 07:04:54;;;;;;;18.20;16.50;;;34.00;93.80;;;32.57;58.77;94565.00;5016889;28;20216;-73
2021/07/22 07:07:20;;;;;;;17.10;15.40;;;34.00;92.40;;;32.13;58.11;94600.94;5030164;28;20630;-74
2021/07/22 07:09:46;;;;;;;17.58;15.98;;;33.50;93.50;;;31.73;57.80;94593.56;5017080;28;20230;-73
2021/07/22 07:12:15;;;;;;;17.85;15.20;;;33.00;93.70;;;31.48;57.59;94617.25;5026465;28;20287;-75
2021/07/22 07:14:43;;;;;;;17.30;15.53;;;32.50;94.10;;;30.49;57.44;94589.66;5008192;28;20551;-73
2021/07/22 07:17:10;;;;;;;19.67;17.27;;;31.50;95.10;;;29.33;57.60;94583.31;5042799;28;20200;-72
2021/07/22 07:19:36;;;;;;;17.90;16.00;;;30.20;96.60;;;29.24;57.05;94626.47;5024557;28;20351;-71
2021/07/22 07:22:02;;;;;;;17.70;15.87;;;29.70;98.00;;;29.14;57.05;94627.06;5019671;28;20734;-72
2021/07/22 07:24:33;;;;;;;17.50;15.80;;;29.30;98.70;;;29.34;56.77;94612.22;5022636;28;20251;-72
2021/07/22 07:27:02;;;;;;;17.90;15.83;;;29.30;99.10;;;29.06;56.19;94622.63;5024188;28;20201;-72
2021/07/22 07:29:28;;;;;;;20.40;17.00;;;28.80;99.90;;;29.27;55.90;94657.75;5006588;28;20188;-72
2021/07/22 07:31:59;;;;;;;17.40;15.53;;;28.90;99.90;;;30.41;55.97;94653.69;5020547;28;20197;-73
2021/07/22 07:34:29;;;;;;;17.93;16.07;;;30.00;98.50;;;31.34;55.39;94663.72;5007136;28;20215;-72
2021/07/22 07:36:57;;;;;;;18.37;16.53;;;31.00;97.80;;;32.46;55.25;94652.06;5022716;28;20216;-73
2021/07/22 07:39:23;;;;;;;23.40;16.83;;;32.00;95.60;;;32.77;54.80;94643.19;5021247;28;20208;-72
2021/07/22 07:41:49;;;;;;;17.60;15.80;;;32.90;94.30;;;33.59;54.48;94621.38;5008057;28;20203;-74
2021/07/22 07:44:18;;;;;;;17.67;15.88;;;33.80;92.50;;;34.23;54.24;94635.88;5036628;28;20232;-73
2021/07/22 07:46:46;;;;;;;18.05;16.27;;;34.90;91.10;;;34.91;53.55;94637.25;5025008;28;20275;-73
2021/07/22 07:49:17;;;;;;;20.65;14.88;;;36.00;88.00;;;35.64;53.30;94631.69;5006970;28;20244;-72
2021/07/22 07:51:43;;;;;;;16.27;14.55;;;36.70;84.00;;;36.35;52.75;94613.31;5040823;28;20633;-72
2021/07/22 07:54:13;;;;;;;17.67;15.85;;;38.00;81.50;;;37.03;51.97;94654.78;5021268;28;20705;-73
2021/07/22 07:56:39;;;;;;;17.08;15.38;;;38.90;77.80;;;37.45;51.61;94609.91;5022233;28;20200;-73
2021/07/22 07:59:07;;;;;;;20.70;14.90;;;39.60;73.50;;;37.48;50.95;94647.03;5021439;28;20255;-74
2021/07/22 08:01:33;;;;;;;17.30;15.50;;;39.80;72.60;;;37.55;51.03;94610.97;5027035;28;20199;-74
2021/07/22 08:03:59;;;;;;;16.63;15.07;;;40.20;71.70;;;38.51;50.34;94690.50;5025014;28;20240;-72
2021/07/22 08:06:28;;;;;;;17.20;15.40;;;40.50;69.60;;;38.05;49.59;94497.38;5023750;28;20231;-72
2021/07/22 08:08:59;;;;;;;15.57;14.02;;;39.80;68.70;;;37.27;49.68;94580.97;5028500;28;20303;-70
2021/07/22 08:11:25;;;;;;;16.30;14.70;;;39.30;68.70;;;37.65;49.30;94574.03;5027781;28;20204;-71
2021/07/22 08:13:51;;;;;;;17.20;14.38;;;39.50;67.80;;;37.94;48.38;94624.19;5026154;28;20595;-72
2021/07/22 08:16:18;;;;;;;15.98;14.48;;;40.30;67.50;;;38.52;48.02;94622.75;5029743;28;20526;-72
2021/07/22 08:18:48;;;;;;;15.65;14.23;;;41.00;66.20;;;38.86;47.78;94614.94;5028754;28;20547;-71
2021/07/22 08:21:14;;;;;;;16.90;15.18;;;41.30;64.70;;;38.40;47.13;94554.88;5022968;28;20181;-71
2021/07/22 08:23:42;;;;;;;16.98;15.30;;;40.90;64.30;;;37.94;46.75;94624.19;5026347;28;20254;-72
2021/07/22 08:26:09;;;;;;;16.60;15.00;;;40.60;65.50;;;38.54;46.32;94602.94;5022158;28;20193;-71
2021/07/22 08:28:36;;;;;;;16.38;14.85;;;41.10;63.70;;;38.16;45.72;94602.44;5041693;28;20564;-70
2021/07/22 08:31:04;;;;;;;16.63;14.95;;;40.70;63.90;;;38.65;45.97;94653.41;5016545;28;20185;-70
2021/07/22 08:33:33;;;;;;;16.67;15.05;;;40.90;63.30;;;38.70;45.75;94611.31;5022206;28;20190;-71
2021/07/22 08:35:59;;;;;;;15.95;14.45;;;41.30;62.50;;;38.37;44.58;94580.69;5021457;28;20227;-72
2021/07/22 08:38:25;;;;;;;17.98;16.20;;;40.70;62.50;;;38.43;44.66;94598.38;5027161;28;20836;-72
2021/07/22 08:40:54;;;;;;;17.63;15.85;;;41.00;63.30;;;39.10;44.39;94560.13;5001798;28;20675;-76
2021/07/22 08:43:22;;;;;;;17.63;15.82;;;41.80;62.30;;;39.33;44.09;94609.19;5010443;28;20298;-74
2021/07/22 08:45:48;;;;;;;16.95;15.27;;;42.30;60.90;;;40.31;43.30;94669.13;5019816;28;20200;-74
2021/07/22 08:48:16;;;;;;;17.00;15.23;;;43.20;60.00;;;40.14;42.92;94559.19;5027079;28;20271;-72
2021/07/22 08:50:48;;;;;;;15.52;14.02;;;43.30;58.50;;;40.36;42.54;94665.81;5027064;28;20214;-73
2021/07/22 08:53:15;;;;;;;16.25;14.55;;;42.90;57.80;;;39.67;42.12;94559.56;5027530;28;20185;-74
2021/07/22 08:55:51;;;;;;;16.80;15.20;;;42.70;57.50;;;39.73;41.90;94676.50;5023252;28;20201;-74
2021/07/22 08:58:22;;;;;;;18.08;16.23;;;42.60;59.50;;;40.86;41.50;94748.75;5046739;28;20197;-74
2021/07/22 09:00:50;;;;;;;18.77;16.75;;;43.20;59.30;;;39.92;41.52;94479.22;5041717;28;20249;-73
2021/07/22 09:03:16;;;;;;;17.33;15.73;;;42.60;58.60;;;39.35;41.47;94554.03;5024517;28;20189;-74
2021/07/22 09:05:42;;;;;;;17.15;15.55;;;42.10;59.70;;;39.89;40.54;94691.16;5011919;28;20238;-73
2021/07/22 09:08:13;;;;;;;16.73;15.13;;;42.60;59.70;;;41.41;40.27;94664.09;5027510;28;20672;-74
2021/07/22 09:10:39;;;;;;;17.00;14.80;;;43.60;57.70;;;42.27;39.93;94643.47;5027050;28;20897;-73
2021/07/22 09:13:21;;;;;;;17.58;15.98;;;44.90;58.30;;;42.02;39.58;94534.78;5020110;28;20193;-72
2021/07/22 09:15:52;;;;;;;14.32;12.98;;;45.20;56.90;;;42.34;39.11;94573.50;5025671;28;20180;-73
2021/07/22 09:18:31;;;;;;;17.73;14.68;;;46.10;56.00;;;42.52;38.95;94648.16;5036456;28;20196;-74
2021/07/22 09:20:58;;;;;;;15.70;14.18;;;45.90;55.20;;;42.55;38.56;94605.41;5014540;28;20519;-73
2021/07/22 09:23:27;;;;;;;15.45;14.02;;;45.60;56.20;;;40.97;38.13;94633.16;5026740;28;20238;-73
2021/07/22 09:25:54;;;;;;;16.80;14.98;;;44.00;57.00;;;41.41;37.89;94639.03;5052585;28;20196;-72
2021/07/22 09:28:26;;;;;;;21.35;17.48;;;44.60;56.00;;;37.92;38.57;94408.63;5027932;28;20181;-75
2021/07/22 09:30:58;;;;;;;18.75;16.75;;;41.80;59.00;;;37.09;38.31;94611.63;5052263;28;20313;-73
2021/07/22 09:33:41;;;;;;;20.48;18.42;;;39.50;65.50;;;38.34;37.82;94689.56;5030423;28;20798;-76
2021/07/22 09:36:23;;;;;;;16.60;15.07;;;40.00;64.00;;;39.30;37.85;94646.13;5011558;28;20204;-74
2021/07/22 09:38:49;;;;;;;17.15;14.90;;;41.30;63.20;;;40.07;37.52;94617.72;5027551;28;20194;-73
2021/07/22 09:41:23;;;;;;;16.83;15.18;;;42.30;61.20;;;38.66;37.31;94522.66;5055405;28;20554;-73
2021/07/22 09:43:50;;;;;;;16.77;15.15;;;41.20;62.30;;;38.93;36.88;94647.28;5020074;28;20507;-73
2021/07/22 09:46:17;;;;;;;16.75;14.80;;;41.40;60.80;;;41.07;36.61;94595.09;5008293;28;20774;-75
2021/07/22 09:49:11;;;;;;;16.35;14.85;;;43.40;60.40;;;42.25;36.60;94705.22;4991457;28;20609;-73
2021/07/22 09:51:38;;;;;;;16.45;14.70;;;44.90;57.80;;;43.32;36.32;94602.53;5018269;28;20200;-76
2021/07/22 09:54:08;;;;;;;16.73;15.13;;;46.40;55.50;;;43.05;36.20;94596.81;5005231;28;20570;-74
2021/07/22 09:56:36;;;;;;;15.35;13.95;;;46.90;55.10;;;42.67;35.64;94580.28;5027901;28;20203;-75
2021/07/22 09:59:04;;;;;;;16.70;15.10;;;46.50;54.50;;;41.53;35.72;94473.19;5019473;28;20223;-75
2021/07/22 10:01:40;;;;;;;17.15;15.65;;;45.10;55.90;;;40.63;35.49;94623.81;5014216;28;20192;-73
2021/07/22 10:04:10;;;;;;;16.98;15.38;;;43.70;59.20;;;41.78;35.05;94624.34;5037076;28;20217;-70
2021/07/22 10:06:37;;;;;;;16.27;14.68;;;45.10;56.80;;;42.22;34.60;94604.97;5026256;28;20188;-71
2021/07/22 10:09:04;;;;;;;16.50;14.95;;;45.60;56.20;;;41.57;34.79;94529.53;5019744;28;20795;-73